sensor_id;sensor_type;location;lat;lon;timestamp;P1;durP1;ratioP1;P2;durP2;ratioP2
42066;SDS011;27734;47.028;28.820;2024-01-10T00:02:21;31.57;;;11.03;;
42066;SDS011;27734;47.028;28.820;2024-01-10T00:04:53;26.53;;;9.67;;
42066;SDS011;27734;47.028;28.820;2024-01-10T00:07:24;31.07;;;11.00;;
42066;SDS011;27734;47.028;28.820;2024-01-10T00:09:55;27.53;;;9.63;;
42066;SDS011;27734;47.028;28.820;2024-01-10T00:12:28;31.87;;;11.10;;
42066;SDS011;27734;47.028;28.820;2024-01-10T00:15:05;27.70;;;9.97;;
42066;SDS011;27734;47.028;28.820;2024-01-10T00:17:37;33.00;;;11.47;;
42066;SDS011;27734;47.028;28.820;2024-01-10T00:20:09;26.53;;;9.77;;
42066;SDS011;27734;47.028;28.820;2024-01-10T00:22:41;30.70;;;10.87;;
42066;SDS011;27734;47.028;28.820;2024-01-10T00:25:14;28.12;;;9.60;;
42066;SDS011;27734;47.028;28.820;2024-01-10T00:27:45;24.97;;;9.27;;
42066;SDS011;27734;47.028;28.820;2024-01-10T00:30:17;30.73;;;9.77;;
42066;SDS011;27734;47.028;28.820;2024-01-10T00:32:48;24.50;;;8.60;;
42066;SDS011;27734;47.028;28.820;2024-01-10T00:35:19;29.43;;;9.80;;
42066;SDS011;27734;47.028;28.820;2024-01-10T00:37:50;25.50;;;9.80;;
42066;SDS011;27734;47.028;28.820;2024-01-10T00:40:21;24.00;;;9.23;;
42066;SDS011;27734;47.028;28.820;2024-01-10T00:42:52;25.83;;;9.67;;
42066;SDS011;27734;47.028;28.820;2024-01-10T00:45:24;30.57;;;10.03;;
42066;SDS011;27734;47.028;28.820;2024-01-10T00:47:55;22.33;;;9.17;;
42066;SDS011;27734;47.028;28.820;2024-01-10T00:50:26;31.50;;;9.23;;
42066;SDS011;27734;47.028;28.820;2024-01-10T00:52:57;28.17;;;10.20;;
42066;SDS011;27734;47.028;28.820;2024-01-10T00:55:29;27.60;;;10.97;;
42066;SDS011;27734;47.028;28.820;2024-01-10T00:58:00;28.30;;;10.03;;
42066;SDS011;27734;47.028;28.820;2024-01-10T01:00:31;28.93;;;10.00;;
42066;SDS011;27734;47.028;28.820;2024-01-10T01:03:02;25.07;;;9.40;;
42066;SDS011;27734;47.028;28.820;2024-01-10T01:05:36;26.25;;;10.23;;
42066;SDS011;27734;47.028;28.820;2024-01-10T01:08:07;30.10;;;10.57;;
42066;SDS011;27734;47.028;28.820;2024-01-10T01:10:38;27.23;;;9.73;;
42066;SDS011;27734;47.028;28.820;2024-01-10T01:13:09;23.50;;;8.43;;
42066;SDS011;27734;47.028;28.820;2024-01-10T01:15:41;30.93;;;10.60;;
42066;SDS011;27734;47.028;28.820;2024-01-10T01:18:12;24.73;;;8.83;;
42066;SDS011;27734;47.028;28.820;2024-01-10T01:20:43;27.77;;;9.67;;
42066;SDS011;27734;47.028;28.820;2024-01-10T01:23:16;35.35;;;10.45;;
42066;SDS011;27734;47.028;28.820;2024-01-10T01:25:48;29.70;;;10.50;;
42066;SDS011;27734;47.028;28.820;2024-01-10T01:28:19;28.47;;;9.67;;
42066;SDS011;27734;47.028;28.820;2024-01-10T01:30:50;26.00;;;9.13;;
42066;SDS011;27734;47.028;28.820;2024-01-10T01:33:22;29.67;;;10.20;;
42066;SDS011;27734;47.028;28.820;2024-01-10T01:35:53;32.50;;;10.65;;
42066;SDS011;27734;47.028;28.820;2024-01-10T01:38:24;30.43;;;10.00;;
42066;SDS011;27734;47.028;28.820;2024-01-10T01:40:56;29.93;;;11.57;;
42066;SDS011;27734;47.028;28.820;2024-01-10T01:43:27;28.53;;;9.67;;
42066;SDS011;27734;47.028;28.820;2024-01-10T01:45:58;26.57;;;8.87;;
42066;SDS011;27734;47.028;28.820;2024-01-10T01:48:29;34.60;;;10.97;;
42066;SDS011;27734;47.028;28.820;2024-01-10T01:51:01;24.67;;;9.93;;
42066;SDS011;27734;47.028;28.820;2024-01-10T01:53:35;33.20;;;11.40;;
42066;SDS011;27734;47.028;28.820;2024-01-10T01:56:07;28.00;;;9.83;;
42066;SDS011;27734;47.028;28.820;2024-01-10T01:58:39;35.03;;;10.63;;
42066;SDS011;27734;47.028;28.820;2024-01-10T02:01:12;29.27;;;10.30;;
42066;SDS011;27734;47.028;28.820;2024-01-10T02:03:44;25.03;;;9.60;;
42066;SDS011;27734;47.028;28.820;2024-01-10T02:06:15;26.40;;;9.37;;
42066;SDS011;27734;47.028;28.820;2024-01-10T02:08:46;26.83;;;8.07;;
42066;SDS011;27734;47.028;28.820;2024-01-10T02:11:17;28.97;;;10.03;;
42066;SDS011;27734;47.028;28.820;2024-01-10T02:13:50;26.25;;;8.80;;
42066;SDS011;27734;47.028;28.820;2024-01-10T02:16:22;22.73;;;7.97;;
42066;SDS011;27734;47.028;28.820;2024-01-10T02:18:54;22.47;;;7.93;;
42066;SDS011;27734;47.028;28.820;2024-01-10T02:21:25;33.63;;;10.83;;
42066;SDS011;27734;47.028;28.820;2024-01-10T02:23:57;24.00;;;8.43;;
42066;SDS011;27734;47.028;28.820;2024-01-10T02:26:28;31.67;;;11.03;;
42066;SDS011;27734;47.028;28.820;2024-01-10T02:28:59;28.75;;;11.30;;
42066;SDS011;27734;47.028;28.820;2024-01-10T02:31:30;27.87;;;8.67;;
42066;SDS011;27734;47.028;28.820;2024-01-10T02:34:01;30.03;;;10.37;;
42066;SDS011;27734;47.028;28.820;2024-01-10T02:36:33;28.83;;;9.67;;
42066;SDS011;27734;47.028;28.820;2024-01-10T02:39:04;25.67;;;7.53;;
42066;SDS011;27734;47.028;28.820;2024-01-10T02:41:35;27.13;;;10.17;;
42066;SDS011;27734;47.028;28.820;2024-01-10T02:44:06;22.53;;;8.83;;
42066;SDS011;27734;47.028;28.820;2024-01-10T02:46:37;25.50;;;9.25;;
42066;SDS011;27734;47.028;28.820;2024-01-10T02:49:08;28.00;;;9.50;;
42066;SDS011;27734;47.028;28.820;2024-01-10T02:51:39;26.07;;;9.80;;
42066;SDS011;27734;47.028;28.820;2024-01-10T02:54:11;24.35;;;9.20;;
42066;SDS011;27734;47.028;28.820;2024-01-10T02:56:42;24.77;;;7.97;;
42066;SDS011;27734;47.028;28.820;2024-01-10T02:59:13;26.63;;;8.07;;
42066;SDS011;27734;47.028;28.820;2024-01-10T03:01:44;23.53;;;7.80;;
42066;SDS011;27734;47.028;28.820;2024-01-10T03:04:15;26.97;;;8.57;;
42066;SDS011;27734;47.028;28.820;2024-01-10T03:06:46;28.30;;;9.70;;
42066;SDS011;27734;47.028;28.820;2024-01-10T03:09:19;27.23;;;8.70;;
42066;SDS011;27734;47.028;28.820;2024-01-10T03:11:51;25.10;;;8.83;;
42066;SDS011;27734;47.028;28.820;2024-01-10T03:14:22;27.30;;;9.50;;
42066;SDS011;27734;47.028;28.820;2024-01-10T03:16:53;25.20;;;8.73;;
42066;SDS011;27734;47.028;28.820;2024-01-10T03:19:24;25.65;;;8.70;;
42066;SDS011;27734;47.028;28.820;2024-01-10T03:21:55;23.60;;;7.57;;
42066;SDS011;27734;47.028;28.820;2024-01-10T03:24:27;29.13;;;9.10;;
42066;SDS011;27734;47.028;28.820;2024-01-10T03:26:58;25.90;;;8.27;;
42066;SDS011;27734;47.028;28.820;2024-01-10T03:29:29;26.77;;;8.33;;
42066;SDS011;27734;47.028;28.820;2024-01-10T03:32:00;24.07;;;8.53;;
42066;SDS011;27734;47.028;28.820;2024-01-10T03:34:31;24.67;;;8.23;;
42066;SDS011;27734;47.028;28.820;2024-01-10T03:37:03;32.37;;;9.43;;
42066;SDS011;27734;47.028;28.820;2024-01-10T03:39:34;22.10;;;7.73;;
42066;SDS011;27734;47.028;28.820;2024-01-10T03:42:06;25.33;;;8.43;;
42066;SDS011;27734;47.028;28.820;2024-01-10T03:44:37;21.27;;;6.90;;
42066;SDS011;27734;47.028;28.820;2024-01-10T03:47:08;23.70;;;7.63;;
42066;SDS011;27734;47.028;28.820;2024-01-10T03:49:39;30.00;;;10.87;;
42066;SDS011;27734;47.028;28.820;2024-01-10T03:52:10;26.73;;;8.60;;
42066;SDS011;27734;47.028;28.820;2024-01-10T03:54:41;26.93;;;8.70;;
42066;SDS011;27734;47.028;28.820;2024-01-10T03:57:12;25.20;;;8.83;;
42066;SDS011;27734;47.028;28.820;2024-01-10T03:59:43;23.63;;;8.47;;
42066;SDS011;27734;47.028;28.820;2024-01-10T04:02:14;23.30;;;6.87;;
42066;SDS011;27734;47.028;28.820;2024-01-10T04:04:46;25.07;;;8.83;;
42066;SDS011;27734;47.028;28.820;2024-01-10T04:07:18;27.10;;;9.20;;
42066;SDS011;27734;47.028;28.820;2024-01-10T04:09:49;20.70;;;6.57;;
42066;SDS011;27734;47.028;28.820;2024-01-10T04:12:20;26.47;;;9.73;;
42066;SDS011;27734;47.028;28.820;2024-01-10T04:14:51;25.30;;;8.90;;
42066;SDS011;27734;47.028;28.820;2024-01-10T04:17:22;29.73;;;10.33;;
42066;SDS011;27734;47.028;28.820;2024-01-10T04:19:53;28.85;;;10.65;;
42066;SDS011;27734;47.028;28.820;2024-01-10T04:22:25;28.70;;;10.73;;
42066;SDS011;27734;47.028;28.820;2024-01-10T04:24:57;30.47;;;10.80;;
42066;SDS011;27734;47.028;28.820;2024-01-10T04:27:29;27.25;;;10.35;;
42066;SDS011;27734;47.028;28.820;2024-01-10T04:30:00;27.57;;;9.73;;
42066;SDS011;27734;47.028;28.820;2024-01-10T04:32:31;30.17;;;10.07;;
42066;SDS011;27734;47.028;28.820;2024-01-10T04:35:03;27.63;;;8.23;;
42066;SDS011;27734;47.028;28.820;2024-01-10T04:37:35;26.97;;;9.40;;
42066;SDS011;27734;47.028;28.820;2024-01-10T04:40:07;29.53;;;11.90;;
42066;SDS011;27734;47.028;28.820;2024-01-10T04:42:39;30.80;;;10.40;;
42066;SDS011;27734;47.028;28.820;2024-01-10T04:45:11;25.20;;;8.30;;
42066;SDS011;27734;47.028;28.820;2024-01-10T04:47:42;31.57;;;11.37;;
42066;SDS011;27734;47.028;28.820;2024-01-10T04:50:14;26.87;;;9.10;;
42066;SDS011;27734;47.028;28.820;2024-01-10T04:52:47;24.77;;;9.60;;
42066;SDS011;27734;47.028;28.820;2024-01-10T04:55:18;23.83;;;7.73;;
42066;SDS011;27734;47.028;28.820;2024-01-10T04:57:49;22.23;;;7.03;;
42066;SDS011;27734;47.028;28.820;2024-01-10T05:00:21;25.97;;;8.50;;
42066;SDS011;27734;47.028;28.820;2024-01-10T05:02:52;24.73;;;9.07;;
42066;SDS011;27734;47.028;28.820;2024-01-10T05:05:23;22.27;;;8.50;;
42066;SDS011;27734;47.028;28.820;2024-01-10T05:07:54;25.83;;;8.87;;
42066;SDS011;27734;47.028;28.820;2024-01-10T05:10:25;28.30;;;9.50;;
42066;SDS011;27734;47.028;28.820;2024-01-10T05:12:57;22.20;;;7.43;;
42066;SDS011;27734;47.028;28.820;2024-01-10T05:15:28;26.93;;;8.90;;
42066;SDS011;27734;47.028;28.820;2024-01-10T05:17:59;22.93;;;8.40;;
42066;SDS011;27734;47.028;28.820;2024-01-10T05:20:31;25.10;;;9.03;;
42066;SDS011;27734;47.028;28.820;2024-01-10T05:23:02;29.13;;;8.87;;
42066;SDS011;27734;47.028;28.820;2024-01-10T05:25:33;26.40;;;9.47;;
42066;SDS011;27734;47.028;28.820;2024-01-10T05:28:05;24.30;;;9.37;;
42066;SDS011;27734;47.028;28.820;2024-01-10T05:30:36;26.00;;;8.70;;
42066;SDS011;27734;47.028;28.820;2024-01-10T05:33:07;26.27;;;8.50;;
42066;SDS011;27734;47.028;28.820;2024-01-10T05:35:39;22.80;;;8.37;;
42066;SDS011;27734;47.028;28.820;2024-01-10T05:38:10;31.87;;;10.20;;
42066;SDS011;27734;47.028;28.820;2024-01-10T05:40:43;27.02;;;10.32;;
42066;SDS011;27734;47.028;28.820;2024-01-10T05:43:14;29.07;;;10.47;;
42066;SDS011;27734;47.028;28.820;2024-01-10T05:45:45;26.13;;;9.03;;
42066;SDS011;27734;47.028;28.820;2024-01-10T05:48:17;22.30;;;7.77;;
42066;SDS011;27734;47.028;28.820;2024-01-10T05:50:48;22.17;;;8.00;;
42066;SDS011;27734;47.028;28.820;2024-01-10T05:53:20;24.60;;;9.63;;
42066;SDS011;27734;47.028;28.820;2024-01-10T05:55:52;25.33;;;8.60;;
42066;SDS011;27734;47.028;28.820;2024-01-10T05:58:23;27.30;;;9.10;;
42066;SDS011;27734;47.028;28.820;2024-01-10T06:00:54;25.57;;;8.13;;
42066;SDS011;27734;47.028;28.820;2024-01-10T06:03:25;25.00;;;7.63;;
42066;SDS011;27734;47.028;28.820;2024-01-10T06:05:56;20.10;;;6.87;;
42066;SDS011;27734;47.028;28.820;2024-01-10T06:08:27;25.10;;;7.13;;
42066;SDS011;27734;47.028;28.820;2024-01-10T06:10:59;24.27;;;6.70;;
42066;SDS011;27734;47.028;28.820;2024-01-10T06:13:31;22.77;;;7.27;;
42066;SDS011;27734;47.028;28.820;2024-01-10T06:16:02;24.17;;;8.43;;
42066;SDS011;27734;47.028;28.820;2024-01-10T06:18:36;22.82;;;7.97;;
42066;SDS011;27734;47.028;28.820;2024-01-10T06:21:07;23.03;;;7.07;;
42066;SDS011;27734;47.028;28.820;2024-01-10T06:23:42;25.53;;;8.50;;
42066;SDS011;27734;47.028;28.820;2024-01-10T06:26:14;26.57;;;7.70;;
42066;SDS011;27734;47.028;28.820;2024-01-10T06:28:45;21.47;;;7.03;;
42066;SDS011;27734;47.028;28.820;2024-01-10T06:31:19;20.40;;;6.97;;
42066;SDS011;27734;47.028;28.820;2024-01-10T06:33:53;17.30;;;5.97;;
42066;SDS011;27734;47.028;28.820;2024-01-10T06:36:24;20.73;;;6.23;;
42066;SDS011;27734;47.028;28.820;2024-01-10T06:38:55;21.20;;;6.93;;
42066;SDS011;27734;47.028;28.820;2024-01-10T06:41:26;22.10;;;7.00;;
42066;SDS011;27734;47.028;28.820;2024-01-10T06:43:58;20.73;;;7.13;;
42066;SDS011;27734;47.028;28.820;2024-01-10T06:46:31;18.87;;;5.55;;
42066;SDS011;27734;47.028;28.820;2024-01-10T06:49:02;24.77;;;7.63;;
42066;SDS011;27734;47.028;28.820;2024-01-10T06:51:35;20.70;;;6.63;;
42066;SDS011;27734;47.028;28.820;2024-01-10T06:54:06;20.17;;;7.07;;
42066;SDS011;27734;47.028;28.820;2024-01-10T06:56:38;18.70;;;5.97;;
42066;SDS011;27734;47.028;28.820;2024-01-10T06:59:09;23.53;;;7.27;;
42066;SDS011;27734;47.028;28.820;2024-01-10T07:01:40;19.13;;;6.20;;
42066;SDS011;27734;47.028;28.820;2024-01-10T07:04:12;19.43;;;6.40;;
42066;SDS011;27734;47.028;28.820;2024-01-10T07:06:47;24.45;;;7.50;;
42066;SDS011;27734;47.028;28.820;2024-01-10T07:09:18;17.50;;;6.93;;
42066;SDS011;27734;47.028;28.820;2024-01-10T07:11:49;20.17;;;6.27;;
42066;SDS011;27734;47.028;28.820;2024-01-10T07:14:23;21.65;;;7.00;;
42066;SDS011;27734;47.028;28.820;2024-01-10T07:16:54;19.93;;;6.63;;
42066;SDS011;27734;47.028;28.820;2024-01-10T07:19:27;22.47;;;7.33;;
42066;SDS011;27734;47.028;28.820;2024-01-10T07:21:59;19.63;;;6.93;;
42066;SDS011;27734;47.028;28.820;2024-01-10T07:24:34;17.97;;;6.07;;
42066;SDS011;27734;47.028;28.820;2024-01-10T07:27:06;21.30;;;6.93;;
42066;SDS011;27734;47.028;28.820;2024-01-10T07:29:37;15.80;;;5.53;;
42066;SDS011;27734;47.028;28.820;2024-01-10T07:32:09;14.77;;;5.80;;
42066;SDS011;27734;47.028;28.820;2024-01-10T07:34:41;18.83;;;5.83;;
42066;SDS011;27734;47.028;28.820;2024-01-10T07:37:13;15.93;;;5.80;;
42066;SDS011;27734;47.028;28.820;2024-01-10T07:39:45;16.17;;;4.83;;
42066;SDS011;27734;47.028;28.820;2024-01-10T07:42:19;18.93;;;5.83;;
42066;SDS011;27734;47.028;28.820;2024-01-10T07:44:50;17.83;;;6.13;;
42066;SDS011;27734;47.028;28.820;2024-01-10T07:47:22;19.00;;;6.73;;
42066;SDS011;27734;47.028;28.820;2024-01-10T07:49:55;19.50;;;5.80;;
42066;SDS011;27734;47.028;28.820;2024-01-10T07:52:27;23.42;;;6.58;;
42066;SDS011;27734;47.028;28.820;2024-01-10T07:54:58;18.97;;;6.53;;
42066;SDS011;27734;47.028;28.820;2024-01-10T07:57:33;18.60;;;6.00;;
42066;SDS011;27734;47.028;28.820;2024-01-10T08:00:07;17.95;;;6.35;;
42066;SDS011;27734;47.028;28.820;2024-01-10T08:02:41;19.07;;;6.63;;
42066;SDS011;27734;47.028;28.820;2024-01-10T08:05:12;17.53;;;6.40;;
42066;SDS011;27734;47.028;28.820;2024-01-10T08:07:44;20.07;;;7.07;;
42066;SDS011;27734;47.028;28.820;2024-01-10T08:10:19;18.80;;;6.93;;
42066;SDS011;27734;47.028;28.820;2024-01-10T08:12:50;18.83;;;6.43;;
42066;SDS011;27734;47.028;28.820;2024-01-10T08:15:22;19.10;;;6.80;;
42066;SDS011;27734;47.028;28.820;2024-01-10T08:17:53;18.23;;;6.07;;
42066;SDS011;27734;47.028;28.820;2024-01-10T08:20:24;15.07;;;6.00;;
42066;SDS011;27734;47.028;28.820;2024-01-10T08:22:56;19.30;;;6.50;;
42066;SDS011;27734;47.028;28.820;2024-01-10T08:25:28;22.40;;;6.97;;
42066;SDS011;27734;47.028;28.820;2024-01-10T08:27:59;20.23;;;6.60;;
42066;SDS011;27734;47.028;28.820;2024-01-10T08:30:30;15.23;;;5.73;;
42066;SDS011;27734;47.028;28.820;2024-01-10T08:33:02;17.00;;;6.17;;
42066;SDS011;27734;47.028;28.820;2024-01-10T08:35:33;21.40;;;6.10;;
42066;SDS011;27734;47.028;28.820;2024-01-10T08:38:07;19.10;;;6.08;;
42066;SDS011;27734;47.028;28.820;2024-01-10T08:40:38;17.13;;;6.20;;
42066;SDS011;27734;47.028;28.820;2024-01-10T08:43:09;13.90;;;4.63;;
42066;SDS011;27734;47.028;28.820;2024-01-10T08:48:56;17.43;;;6.03;;
42066;SDS011;27734;47.028;28.820;2024-01-10T08:51:27;14.40;;;5.60;;
42066;SDS011;27734;47.028;28.820;2024-01-10T08:53:59;18.60;;;5.60;;
42066;SDS011;27734;47.028;28.820;2024-01-10T08:56:30;19.83;;;6.03;;
42066;SDS011;27734;47.028;28.820;2024-01-10T08:59:02;15.90;;;5.27;;
42066;SDS011;27734;47.028;28.820;2024-01-10T09:01:34;18.00;;;6.30;;
42066;SDS011;27734;47.028;28.820;2024-01-10T09:04:07;19.43;;;6.40;;
42066;SDS011;27734;47.028;28.820;2024-01-10T09:06:38;14.87;;;5.13;;
42066;SDS011;27734;47.028;28.820;2024-01-10T09:09:10;14.97;;;5.37;;
42066;SDS011;27734;47.028;28.820;2024-01-10T09:11:42;18.30;;;5.23;;
42066;SDS011;27734;47.028;28.820;2024-01-10T09:14:13;16.27;;;5.70;;
42066;SDS011;27734;47.028;28.820;2024-01-10T09:16:44;15.43;;;5.97;;
42066;SDS011;27734;47.028;28.820;2024-01-10T09:19:15;12.07;;;4.43;;
42066;SDS011;27734;47.028;28.820;2024-01-10T09:21:46;16.27;;;5.30;;
42066;SDS011;27734;47.028;28.820;2024-01-10T09:24:18;16.03;;;5.63;;
42066;SDS011;27734;47.028;28.820;2024-01-10T09:26:50;17.60;;;7.10;;
42066;SDS011;27734;47.028;28.820;2024-01-10T09:29:22;14.80;;;5.03;;
42066;SDS011;27734;47.028;28.820;2024-01-10T09:31:55;18.13;;;6.00;;
42066;SDS011;27734;47.028;28.820;2024-01-10T09:34:29;14.98;;;5.40;;
42066;SDS011;27734;47.028;28.820;2024-01-10T09:37:00;13.90;;;4.83;;
42066;SDS011;27734;47.028;28.820;2024-01-10T09:39:33;12.73;;;4.97;;
42066;SDS011;27734;47.028;28.820;2024-01-10T09:42:04;16.43;;;5.77;;
42066;SDS011;27734;47.028;28.820;2024-01-10T09:44:36;17.27;;;5.80;;
42066;SDS011;27734;47.028;28.820;2024-01-10T09:47:07;16.73;;;5.30;;
42066;SDS011;27734;47.028;28.820;2024-01-10T09:49:40;11.63;;;5.10;;
42066;SDS011;27734;47.028;28.820;2024-01-10T09:52:16;16.40;;;5.35;;
42066;SDS011;27734;47.028;28.820;2024-01-10T09:54:53;15.10;;;4.90;;
42066;SDS011;27734;47.028;28.820;2024-01-10T09:57:25;16.53;;;5.50;;
42066;SDS011;27734;47.028;28.820;2024-01-10T09:59:56;15.37;;;5.43;;
42066;SDS011;27734;47.028;28.820;2024-01-10T10:02:35;17.33;;;5.97;;
42066;SDS011;27734;47.028;28.820;2024-01-10T10:05:11;14.97;;;5.13;;
42066;SDS011;27734;47.028;28.820;2024-01-10T10:07:45;17.07;;;5.50;;
42066;SDS011;27734;47.028;28.820;2024-01-10T10:10:17;14.57;;;5.33;;
42066;SDS011;27734;47.028;28.820;2024-01-10T10:12:49;17.53;;;4.97;;
42066;SDS011;27734;47.028;28.820;2024-01-10T10:15:22;17.10;;;5.57;;
42066;SDS011;27734;47.028;28.820;2024-01-10T10:17:55;17.97;;;5.23;;
42066;SDS011;27734;47.028;28.820;2024-01-10T10:20:27;15.30;;;5.53;;
42066;SDS011;27734;47.028;28.820;2024-01-10T10:23:01;11.93;;;4.77;;
42066;SDS011;27734;47.028;28.820;2024-01-10T10:25:34;13.15;;;4.60;;
42066;SDS011;27734;47.028;28.820;2024-01-10T10:28:07;14.40;;;4.67;;
42066;SDS011;27734;47.028;28.820;2024-01-10T10:30:39;19.13;;;5.60;;
42066;SDS011;27734;47.028;28.820;2024-01-10T10:33:10;16.17;;;5.47;;
42066;SDS011;27734;47.028;28.820;2024-01-10T10:35:44;16.97;;;5.67;;
42066;SDS011;27734;47.028;28.820;2024-01-10T10:38:15;17.23;;;5.75;;
42066;SDS011;27734;47.028;28.820;2024-01-10T10:40:51;18.10;;;6.00;;
42066;SDS011;27734;47.028;28.820;2024-01-10T10:43:23;17.00;;;4.90;;
42066;SDS011;27734;47.028;28.820;2024-01-10T10:45:54;18.35;;;6.15;;
42066;SDS011;27734;47.028;28.820;2024-01-10T10:48:32;14.43;;;4.93;;
42066;SDS011;27734;47.028;28.820;2024-01-10T10:51:08;17.77;;;5.03;;
42066;SDS011;27734;47.028;28.820;2024-01-10T10:53:40;17.57;;;5.00;;
42066;SDS011;27734;47.028;28.820;2024-01-10T10:56:18;15.95;;;5.50;;
42066;SDS011;27734;47.028;28.820;2024-01-10T10:58:52;15.97;;;4.90;;
42066;SDS011;27734;47.028;28.820;2024-01-10T11:01:26;14.85;;;5.08;;
42066;SDS011;27734;47.028;28.820;2024-01-10T11:03:59;17.53;;;5.40;;
42066;SDS011;27734;47.028;28.820;2024-01-10T11:06:31;20.57;;;5.77;;
42066;SDS011;27734;47.028;28.820;2024-01-10T11:09:05;15.93;;;5.30;;
42066;SDS011;27734;47.028;28.820;2024-01-10T11:11:42;15.63;;;5.27;;
42066;SDS011;27734;47.028;28.820;2024-01-10T11:14:35;16.65;;;5.30;;
42066;SDS011;27734;47.028;28.820;2024-01-10T11:17:38;18.83;;;6.00;;
42066;SDS011;27734;47.028;28.820;2024-01-10T11:20:39;19.55;;;6.10;;
42066;SDS011;27734;47.028;28.820;2024-01-10T11:23:32;20.93;;;6.00;;
42066;SDS011;27734;47.028;28.820;2024-01-10T11:26:13;18.20;;;5.37;;
42066;SDS011;27734;47.028;28.820;2024-01-10T11:28:46;19.17;;;5.83;;
42066;SDS011;27734;47.028;28.820;2024-01-10T11:31:30;19.20;;;5.83;;
42066;SDS011;27734;47.028;28.820;2024-01-10T11:34:03;21.33;;;6.13;;
42066;SDS011;27734;47.028;28.820;2024-01-10T11:36:35;17.27;;;5.57;;
42066;SDS011;27734;47.028;28.820;2024-01-10T11:39:06;15.43;;;5.67;;
42066;SDS011;27734;47.028;28.820;2024-01-10T11:41:40;18.60;;;6.30;;
42066;SDS011;27734;47.028;28.820;2024-01-10T11:44:27;18.80;;;6.53;;
42066;SDS011;27734;47.028;28.820;2024-01-10T11:47:01;19.70;;;6.37;;
42066;SDS011;27734;47.028;28.820;2024-01-10T11:49:34;17.30;;;5.40;;
42066;SDS011;27734;47.028;28.820;2024-01-10T11:52:06;20.10;;;6.53;;
42066;SDS011;27734;47.028;28.820;2024-01-10T11:54:38;24.40;;;6.60;;
42066;SDS011;27734;47.028;28.820;2024-01-10T11:57:13;18.77;;;6.17;;
42066;SDS011;27734;47.028;28.820;2024-01-10T11:59:49;17.07;;;6.50;;
42066;SDS011;27734;47.028;28.820;2024-01-10T12:02:23;19.33;;;6.33;;
42066;SDS011;27734;47.028;28.820;2024-01-10T12:04:54;18.93;;;6.17;;
42066;SDS011;27734;47.028;28.820;2024-01-10T12:07:26;22.17;;;6.87;;
42066;SDS011;27734;47.028;28.820;2024-01-10T12:12:32;25.00;;;6.47;;
42066;SDS011;27734;47.028;28.820;2024-01-10T12:15:07;15.50;;;5.47;;
42066;SDS011;27734;47.028;28.820;2024-01-10T12:17:39;21.30;;;6.57;;
42066;SDS011;27734;47.028;28.820;2024-01-10T12:20:13;22.20;;;6.73;;
42066;SDS011;27734;47.028;28.820;2024-01-10T12:22:45;21.93;;;7.20;;
42066;SDS011;27734;47.028;28.820;2024-01-10T12:25:16;18.60;;;6.37;;
42066;SDS011;27734;47.028;28.820;2024-01-10T12:27:47;18.70;;;6.77;;
42066;SDS011;27734;47.028;28.820;2024-01-10T12:30:20;21.90;;;7.37;;
42066;SDS011;27734;47.028;28.820;2024-01-10T12:32:52;19.60;;;6.60;;
42066;SDS011;27734;47.028;28.820;2024-01-10T12:35:23;18.97;;;6.63;;
42066;SDS011;27734;47.028;28.820;2024-01-10T12:37:54;20.57;;;7.03;;
42066;SDS011;27734;47.028;28.820;2024-01-10T12:40:27;19.73;;;6.70;;
42066;SDS011;27734;47.028;28.820;2024-01-10T12:43:04;20.83;;;7.33;;
42066;SDS011;27734;47.028;28.820;2024-01-10T12:45:37;18.63;;;7.17;;
42066;SDS011;27734;47.028;28.820;2024-01-10T12:48:14;19.92;;;7.00;;
42066;SDS011;27734;47.028;28.820;2024-01-10T12:50:45;21.95;;;7.62;;
42066;SDS011;27734;47.028;28.820;2024-01-10T12:53:16;23.83;;;7.93;;
42066;SDS011;27734;47.028;28.820;2024-01-10T12:55:50;19.67;;;6.47;;
42066;SDS011;27734;47.028;28.820;2024-01-10T12:58:23;23.93;;;7.00;;
42066;SDS011;27734;47.028;28.820;2024-01-10T13:00:54;22.73;;;8.03;;
42066;SDS011;27734;47.028;28.820;2024-01-10T13:03:28;20.83;;;7.40;;
42066;SDS011;27734;47.028;28.820;2024-01-10T13:06:10;24.33;;;7.87;;
42066;SDS011;27734;47.028;28.820;2024-01-10T13:08:41;21.13;;;7.57;;
42066;SDS011;27734;47.028;28.820;2024-01-10T13:11:13;24.50;;;8.07;;
42066;SDS011;27734;47.028;28.820;2024-01-10T13:13:44;22.40;;;7.77;;
42066;SDS011;27734;47.028;28.820;2024-01-10T13:16:15;24.07;;;8.33;;
42066;SDS011;27734;47.028;28.820;2024-01-10T13:18:50;23.27;;;7.77;;
42066;SDS011;27734;47.028;28.820;2024-01-10T13:21:24;22.10;;;8.30;;
42066;SDS011;27734;47.028;28.820;2024-01-10T13:23:56;25.47;;;9.37;;
42066;SDS011;27734;47.028;28.820;2024-01-10T13:26:27;25.40;;;9.13;;
42066;SDS011;27734;47.028;28.820;2024-01-10T13:29:01;23.02;;;8.35;;
42066;SDS011;27734;47.028;28.820;2024-01-10T13:31:32;20.23;;;7.50;;
42066;SDS011;27734;47.028;28.820;2024-01-10T13:34:04;20.57;;;7.97;;
42066;SDS011;27734;47.028;28.820;2024-01-10T13:36:39;24.27;;;8.00;;
42066;SDS011;27734;47.028;28.820;2024-01-10T13:39:10;20.75;;;8.00;;
42066;SDS011;27734;47.028;28.820;2024-01-10T13:41:43;20.85;;;7.75;;
42066;SDS011;27734;47.028;28.820;2024-01-10T13:44:14;22.07;;;8.13;;
42066;SDS011;27734;47.028;28.820;2024-01-10T13:46:45;23.00;;;8.47;;
42066;SDS011;27734;47.028;28.820;2024-01-10T13:49:21;23.10;;;8.20;;
42066;SDS011;27734;47.028;28.820;2024-01-10T13:51:57;22.70;;;9.20;;
42066;SDS011;27734;47.028;28.820;2024-01-10T13:54:37;23.53;;;8.73;;
42066;SDS011;27734;47.028;28.820;2024-01-10T13:57:08;24.05;;;8.40;;
42066;SDS011;27734;47.028;28.820;2024-01-10T13:59:39;23.60;;;8.60;;
42066;SDS011;27734;47.028;28.820;2024-01-10T14:02:10;23.70;;;8.20;;
42066;SDS011;27734;47.028;28.820;2024-01-10T14:04:46;25.17;;;9.27;;
42066;SDS011;27734;47.028;28.820;2024-01-10T14:07:17;25.50;;;9.93;;
42066;SDS011;27734;47.028;28.820;2024-01-10T14:09:58;22.13;;;8.30;;
42066;SDS011;27734;47.028;28.820;2024-01-10T14:12:29;26.25;;;8.95;;
42066;SDS011;27734;47.028;28.820;2024-01-10T14:15:02;25.30;;;8.33;;
42066;SDS011;27734;47.028;28.820;2024-01-10T14:17:34;22.83;;;8.93;;
42066;SDS011;27734;47.028;28.820;2024-01-10T14:20:06;30.00;;;9.10;;
42066;SDS011;27734;47.028;28.820;2024-01-10T14:22:38;20.23;;;7.63;;
42066;SDS011;27734;47.028;28.820;2024-01-10T14:25:10;24.47;;;9.50;;
42066;SDS011;27734;47.028;28.820;2024-01-10T14:27:42;27.47;;;9.17;;
42066;SDS011;27734;47.028;28.820;2024-01-10T14:30:13;24.83;;;9.90;;
42066;SDS011;27734;47.028;28.820;2024-01-10T14:32:44;24.00;;;8.67;;
42066;SDS011;27734;47.028;28.820;2024-01-10T14:35:16;27.23;;;9.27;;
42066;SDS011;27734;47.028;28.820;2024-01-10T14:37:48;27.07;;;9.70;;
42066;SDS011;27734;47.028;28.820;2024-01-10T14:40:19;25.17;;;10.37;;
42066;SDS011;27734;47.028;28.820;2024-01-10T14:42:51;23.27;;;9.17;;
42066;SDS011;27734;47.028;28.820;2024-01-10T14:45:22;26.97;;;10.00;;
42066;SDS011;27734;47.028;28.820;2024-01-10T14:47:54;30.33;;;10.90;;
42066;SDS011;27734;47.028;28.820;2024-01-10T14:50:25;30.47;;;11.87;;
42066;SDS011;27734;47.028;28.820;2024-01-10T14:52:56;31.23;;;11.27;;
42066;SDS011;27734;47.028;28.820;2024-01-10T14:55:28;29.07;;;11.10;;
42066;SDS011;27734;47.028;28.820;2024-01-10T14:57:59;36.63;;;12.40;;